createdAt,value
2018-11-29T00:00:04.157Z,96.17
2018-11-29T00:01:07.475Z,95.91
2018-11-29T00:02:10.298Z,95.91
2018-11-29T00:03:13.150Z,96.17
2018-11-29T00:04:16.705Z,96.21
2018-11-29T00:05:19.748Z,95.92
2018-11-29T00:06:22.629Z,96.19
2018-11-29T00:07:25.794Z,95.82
2018-11-29T00:08:28.678Z,96.37
2018-11-29T00:09:35.491Z,95.95
2018-11-29T00:10:38.366Z,95.93
2018-11-29T00:11:41.248Z,96.21
2018-11-29T00:12:44.670Z,96.13
2018-11-29T00:13:47.883Z,96.10
2018-11-29T00:14:50.763Z,96.14
2018-11-29T00:15:53.617Z,95.92
2018-11-29T00:16:56.526Z,96.08
2018-11-29T00:17:59.739Z,96.16
2018-11-29T00:19:02.631Z,95.82
2018-11-29T00:20:05.859Z,96.23
2018-11-29T00:21:08.800Z,96.10
2018-11-29T00:22:11.641Z,96.36
2018-11-29T00:23:14.555Z,96.31
2018-11-29T00:24:17.412Z,96.25
2018-11-29T00:25:20.336Z,96.25
2018-11-29T00:26:23.504Z,96.30
2018-11-29T00:27:26.387Z,96.32
2018-11-29T00:28:29.342Z,96.45
2018-11-29T00:29:32.558Z,96.28
2018-11-29T00:30:36.266Z,96.58
2018-11-29T00:31:39.471Z,96.26
2018-11-29T00:32:42.691Z,96.26
2018-11-29T00:33:45.567Z,96.43
2018-11-29T00:34:48.439Z,96.14
2018-11-29T00:35:51.292Z,96.31
2018-11-29T00:36:54.180Z,96.26
2018-11-29T00:37:57.153Z,96.28
2018-11-29T00:39:00.350Z,96.25
2018-11-29T00:40:03.208Z,96.22
2018-11-29T00:41:06.222Z,95.97
2018-11-29T00:42:09.084Z,96.12
2018-11-29T00:43:11.949Z,95.95
2018-11-29T00:44:14.936Z,96.06
2018-11-29T00:45:18.319Z,96.45
2018-11-29T00:46:21.802Z,96.21
2018-11-29T00:47:24.670Z,95.96
2018-11-29T00:48:27.642Z,96.25
2018-11-29T00:49:30.713Z,95.97
2018-11-29T00:50:34.351Z,96.08
2018-11-29T00:51:38.154Z,96.68
2018-11-29T00:52:41.538Z,96.32
2018-11-29T00:53:44.412Z,96.63
2018-11-29T00:54:47.584Z,96.45
2018-11-29T00:55:50.989Z,96.12
2018-11-29T00:56:54.538Z,96.49
2018-11-29T00:57:58.386Z,96.29
2018-11-29T00:59:01.883Z,96.25
2018-11-29T01:00:05.464Z,96.39
2018-11-29T01:01:08.919Z,96.61
2018-11-29T01:02:12.163Z,96.42
2018-11-29T01:03:15.724Z,96.98
2018-11-29T01:04:19.528Z,96.97
2018-11-29T01:05:23.804Z,96.55
2018-11-29T01:06:27.291Z,96.64
2018-11-29T01:07:30.470Z,96.71
2018-11-29T01:08:34.830Z,96.46
2018-11-29T01:09:38.070Z,96.87
2018-11-29T01:10:41.862Z,96.86
2018-11-29T01:11:46.327Z,96.89
2018-11-29T01:12:49.972Z,96.47
2018-11-29T01:13:53.516Z,96.54
2018-11-29T01:14:56.674Z,96.58
2018-11-29T01:15:59.799Z,96.53
2018-11-29T01:17:02.804Z,96.70
2018-11-29T01:18:05.789Z,96.85
2018-11-29T01:19:08.921Z,96.51
2018-11-29T01:20:12.399Z,96.76
2018-11-29T01:21:15.619Z,96.70
2018-11-29T01:22:21.973Z,96.89
2018-11-29T01:23:25.490Z,97.12
2018-11-29T01:24:28.952Z,97.18
2018-11-29T01:25:32.070Z,96.79
2018-11-29T01:26:36.563Z,97.10
2018-11-29T01:27:40.010Z,97.06
2018-11-29T01:28:43.139Z,97.01
2018-11-29T01:29:46.311Z,97.18
2018-11-29T01:30:49.326Z,97.00
2018-11-29T01:31:52.820Z,97.16
2018-11-29T01:32:56.394Z,97.20
2018-11-29T01:33:59.717Z,97.27
2018-11-29T01:35:03.291Z,96.81
2018-11-29T01:36:07.149Z,97.18
2018-11-29T01:37:10.519Z,97.38
2018-11-29T01:38:13.959Z,97.01
2018-11-29T01:39:17.396Z,97.34
2018-11-29T01:40:22.697Z,97.34
2018-11-29T01:41:26.864Z,97.52
2018-11-29T01:42:30.663Z,97.27
2018-11-29T01:43:33.539Z,97.60
2018-11-29T01:44:37.284Z,97.75
2018-11-29T01:45:40.236Z,97.66
2018-11-29T01:46:43.475Z,97.59
2018-11-29T01:47:47.128Z,97.55
2018-11-29T01:48:50.378Z,97.53
2018-11-29T01:49:53.201Z,97.54
2018-11-29T01:50:56.019Z,97.38
2018-11-29T01:51:59.303Z,97.71
2018-11-29T01:53:02.317Z,97.26
2018-11-29T01:54:05.846Z,97.63
2018-11-29T01:55:09.613Z,97.38
2018-11-29T01:56:12.949Z,97.34
2018-11-29T01:57:16.305Z,97.79
2018-11-29T01:58:19.686Z,97.71
2018-11-29T01:59:22.510Z,97.64
2018-11-29T02:00:25.767Z,97.64
2018-11-29T02:01:29.269Z,97.64
2018-11-29T02:02:32.700Z,97.47
2018-11-29T02:03:35.887Z,97.60
2018-11-29T02:04:39.253Z,97.72
2018-11-29T02:05:42.731Z,97.38
2018-11-29T02:06:46.367Z,97.66
2018-11-29T02:07:49.978Z,97.98
2018-11-29T02:08:53.004Z,97.67
2018-11-29T02:10:01.040Z,97.60
2018-11-29T02:11:04.327Z,97.69
2018-11-29T02:12:07.791Z,97.85
2018-11-29T02:13:10.966Z,97.47
2018-11-29T02:14:14.130Z,97.67
2018-11-29T02:15:17.001Z,97.51
2018-11-29T02:16:20.102Z,97.55
2018-11-29T02:17:23.230Z,97.74
2018-11-29T02:18:26.230Z,97.45
2018-11-29T02:19:29.544Z,98.05
2018-11-29T02:20:33.228Z,98.03
2018-11-29T02:21:36.145Z,97.70
2018-11-29T02:22:39.975Z,97.46
2018-11-29T02:23:43.171Z,97.58
2018-11-29T02:24:46.095Z,98.02
2018-11-29T02:25:49.177Z,98.35
2018-11-29T02:26:52.530Z,97.63
2018-11-29T02:27:55.482Z,98.16
2018-11-29T02:28:59.012Z,97.76
2018-11-29T02:30:02.054Z,97.92
2018-11-29T02:31:05.232Z,97.91
2018-11-29T02:32:08.082Z,98.11
2018-11-29T02:33:11.550Z,97.93
2018-11-29T02:34:14.682Z,98.15
2018-11-29T02:35:18.062Z,97.93
2018-11-29T02:36:21.310Z,97.79
2018-11-29T02:37:24.254Z,97.83
2018-11-29T02:38:27.271Z,98.18
2018-11-29T02:39:31.132Z,98.14
2018-11-29T02:40:34.073Z,97.86
2018-11-29T02:41:37.069Z,97.87
2018-11-29T02:42:40.079Z,97.79
2018-11-29T02:43:43.215Z,98.04
2018-11-29T02:44:46.247Z,97.75
2018-11-29T02:45:49.875Z,97.99
2018-11-29T02:46:53.137Z,98.08
2018-11-29T02:47:56.520Z,97.93
2018-11-29T02:48:59.470Z,98.36
2018-11-29T02:50:03.027Z,98.20
2018-11-29T02:51:06.463Z,97.90
2018-11-29T02:52:10.330Z,98.23
2018-11-29T02:53:13.930Z,97.99
2018-11-29T02:54:17.834Z,97.86
2018-11-29T02:55:21.079Z,98.32
2018-11-29T02:56:24.523Z,97.90
2018-11-29T02:57:28.185Z,97.98
2018-11-29T02:58:32.072Z,97.77
2018-11-29T02:59:35.476Z,98.03
2018-11-29T03:00:39.355Z,97.80
2018-11-29T03:01:42.974Z,98.10
2018-11-29T03:02:46.492Z,98.00
2018-11-29T03:03:50.536Z,97.75
2018-11-29T03:04:55.614Z,98.02
2018-11-29T03:05:59.628Z,97.72
2018-11-29T03:07:03.558Z,98.15
2018-11-29T03:08:07.070Z,98.00
2018-11-29T03:09:10.867Z,98.08
2018-11-29T03:10:14.245Z,97.99
2018-11-29T03:11:18.333Z,98.10
2018-11-29T03:12:21.825Z,98.06
2018-11-29T03:13:25.492Z,98.01
2018-11-29T03:14:29.021Z,98.12
2018-11-29T03:15:32.105Z,98.04
2018-11-29T03:16:35.757Z,98.15
2018-11-29T03:17:41.229Z,98.21
2018-11-29T03:18:46.912Z,98.31
2018-11-29T03:19:50.614Z,97.77
2018-11-29T03:20:54.050Z,97.99
2018-11-29T03:21:57.600Z,98.13
2018-11-29T03:23:02.172Z,98.08
2018-11-29T03:24:06.087Z,98.27
2018-11-29T03:25:09.919Z,98.09
2018-11-29T03:26:13.369Z,97.70
2018-11-29T03:27:18.207Z,98.42
2018-11-29T03:28:21.620Z,98.25
2018-11-29T03:29:24.903Z,97.95
2018-11-29T03:30:28.377Z,98.45
2018-11-29T03:31:31.570Z,98.30
2018-11-29T03:32:34.790Z,98.25
2018-11-29T03:33:38.019Z,97.99
2018-11-29T03:34:42.805Z,97.91
2018-11-29T03:35:46.141Z,98.07
2018-11-29T03:36:50.183Z,98.18
2018-11-29T03:37:53.951Z,98.37
2018-11-29T03:38:58.039Z,98.27
2018-11-29T03:40:01.803Z,98.25
2018-11-29T03:41:04.722Z,98.52
2018-11-29T03:42:07.578Z,98.09
2018-11-29T03:43:11.629Z,98.22
2018-11-29T03:44:14.491Z,98.36
2018-11-29T03:45:17.561Z,98.49
2018-11-29T03:46:20.414Z,98.70
2018-11-29T03:47:23.540Z,98.37
2018-11-29T03:48:26.419Z,98.38
2018-11-29T03:49:29.656Z,98.21
2018-11-29T03:50:33.765Z,98.22
2018-11-29T03:51:36.700Z,98.28
2018-11-29T03:52:39.644Z,98.31
2018-11-29T03:53:42.524Z,98.21
2018-11-29T03:54:45.502Z,98.41
2018-11-29T03:55:48.743Z,98.18
2018-11-29T03:56:51.619Z,98.34
2018-11-29T03:57:54.572Z,98.46
2018-11-29T03:58:57.507Z,98.46
2018-11-29T04:00:01.369Z,98.28
2018-11-29T04:01:04.899Z,98.09
2018-11-29T04:02:08.451Z,98.68
2018-11-29T04:03:11.347Z,98.20
2018-11-29T04:04:14.306Z,98.55
2018-11-29T04:05:17.280Z,98.59
2018-11-29T04:06:20.296Z,98.37
2018-11-29T04:07:23.145Z,98.69
2018-11-29T04:08:26.515Z,98.76
2018-11-29T04:09:29.362Z,98.51
2018-11-29T04:10:32.240Z,98.56
2018-11-29T04:11:35.263Z,98.72
2018-11-29T04:12:38.208Z,98.21
2018-11-29T04:13:41.078Z,98.72
2018-11-29T04:14:44.384Z,98.24
2018-11-29T04:15:47.362Z,98.83
2018-11-29T04:16:50.462Z,98.26
2018-11-29T04:17:53.399Z,98.68
2018-11-29T04:18:56.289Z,98.40
2018-11-29T04:19:59.160Z,98.74
2018-11-29T04:21:02.026Z,98.93
2018-11-29T04:22:04.876Z,98.47
2018-11-29T04:23:07.739Z,98.81
2018-11-29T04:24:10.576Z,98.96
2018-11-29T04:25:13.531Z,98.82
2018-11-29T04:26:16.415Z,99.04
2018-11-29T04:27:19.295Z,98.98
2018-11-29T04:28:22.439Z,98.70
2018-11-29T04:29:25.322Z,98.86
2018-11-29T04:30:28.236Z,98.75
2018-11-29T04:31:31.139Z,98.51
2018-11-29T04:32:34.582Z,98.79
2018-11-29T04:33:39.998Z,98.84
2018-11-29T04:34:42.883Z,98.96
2018-11-29T04:35:45.928Z,99.00
2018-11-29T04:36:48.906Z,98.90
2018-11-29T04:37:52.309Z,99.06
2018-11-29T04:38:55.196Z,98.86
2018-11-29T04:39:58.092Z,98.66
2018-11-29T04:41:00.967Z,98.91
2018-11-29T04:42:04.970Z,98.77
2018-11-29T04:43:07.832Z,98.84
2018-11-29T04:44:11.234Z,99.12
2018-11-29T04:45:14.152Z,98.95
2018-11-29T04:46:17.113Z,99.09
2018-11-29T04:47:19.955Z,99.05
2018-11-29T04:48:22.928Z,99.17
2018-11-29T04:49:25.857Z,99.38
2018-11-29T04:50:29.107Z,98.83
2018-11-29T04:51:32.147Z,98.98
2018-11-29T04:52:35.110Z,98.94
2018-11-29T04:53:37.966Z,99.07
2018-11-29T04:54:40.968Z,98.94
2018-11-29T04:55:44.023Z,99.14
2018-11-29T04:56:47.288Z,99.24
2018-11-29T04:57:50.175Z,99.22
2018-11-29T04:58:53.041Z,99.35
2018-11-29T04:59:55.897Z,99.36
2018-11-29T05:00:58.745Z,99.51
2018-11-29T05:02:01.671Z,99.29
2018-11-29T05:03:06.045Z,99.13
2018-11-29T05:04:09.451Z,99.66
2018-11-29T05:05:12.520Z,99.77
2018-11-29T05:06:15.532Z,99.38
2018-11-29T05:07:18.528Z,99.05
2018-11-29T05:08:21.868Z,99.50
2018-11-29T05:09:24.736Z,99.77
2018-11-29T05:10:27.682Z,99.47
2018-11-29T05:11:30.539Z,99.76
2018-11-29T05:12:36.825Z,99.29
2018-11-29T05:13:39.799Z,99.43
2018-11-29T05:14:43.076Z,99.51
2018-11-29T05:15:45.950Z,99.64
2018-11-29T05:16:48.888Z,99.47
2018-11-29T05:17:51.840Z,99.58
2018-11-29T05:18:54.787Z,99.58
2018-11-29T05:19:57.660Z,99.33
2018-11-29T05:21:00.912Z,99.57
2018-11-29T05:22:03.800Z,99.60
2018-11-29T05:23:07.931Z,99.51
2018-11-29T05:24:11.522Z,99.56
2018-11-29T05:25:14.388Z,99.15
2018-11-29T05:26:17.355Z,99.46
2018-11-29T05:27:20.737Z,99.41
2018-11-29T05:28:23.667Z,99.36
2018-11-29T05:29:27.452Z,99.39
2018-11-29T05:30:30.458Z,99.47
2018-11-29T05:31:33.452Z,99.15
2018-11-29T05:32:36.346Z,99.44
2018-11-29T05:33:39.679Z,99.18
2018-11-29T05:34:42.669Z,99.24
2018-11-29T05:35:45.589Z,99.16
2018-11-29T05:36:49.084Z,99.23
2018-11-29T05:37:51.989Z,99.19
2018-11-29T05:38:55.341Z,99.24
2018-11-29T05:39:58.601Z,99.06
2018-11-29T05:41:01.690Z,98.86
2018-11-29T05:42:04.627Z,99.33
2018-11-29T05:43:07.537Z,99.49
2018-11-29T05:44:10.541Z,99.27
2018-11-29T05:45:14.078Z,99.03
2018-11-29T05:46:17.392Z,99.34
2018-11-29T05:47:20.324Z,99.36
2018-11-29T05:48:23.848Z,99.58
2018-11-29T05:49:26.815Z,99.00
2018-11-29T05:50:30.293Z,99.63
2018-11-29T05:51:33.212Z,99.26
2018-11-29T05:52:36.471Z,99.53
2018-11-29T05:53:39.342Z,99.46
2018-11-29T05:54:42.266Z,99.58
2018-11-29T05:55:45.157Z,99.08
2018-11-29T05:56:47.997Z,99.09
2018-11-29T05:57:51.343Z,99.21
2018-11-29T05:58:54.610Z,99.03
2018-11-29T05:59:58.906Z,98.98
2018-11-29T06:01:04.761Z,99.35
2018-11-29T06:02:08.431Z,99.35
2018-11-29T06:03:11.327Z,98.88
2018-11-29T06:04:14.194Z,99.37
2018-11-29T06:05:17.582Z,99.28
2018-11-29T06:06:20.444Z,98.89
2018-11-29T06:07:23.290Z,98.77
2018-11-29T06:08:26.186Z,98.89
2018-11-29T06:09:29.606Z,98.68
2018-11-29T06:10:34.682Z,98.77
2018-11-29T06:11:38.803Z,98.76
2018-11-29T06:12:41.722Z,98.94
2018-11-29T06:13:45.474Z,98.85
2018-11-29T06:14:48.528Z,98.78
2018-11-29T06:15:52.323Z,99.16
2018-11-29T06:16:55.248Z,98.95
2018-11-29T06:17:58.563Z,99.01
2018-11-29T06:19:01.477Z,98.66
2018-11-29T06:20:05.298Z,99.15
2018-11-29T06:21:08.157Z,98.67
2018-11-29T06:22:11.306Z,98.55
2018-11-29T06:23:15.010Z,99.11
2018-11-29T06:24:18.467Z,98.77
2018-11-29T06:25:21.724Z,99.01
2018-11-29T06:26:24.648Z,99.02
2018-11-29T06:27:27.513Z,98.78
2018-11-29T06:28:30.531Z,99.10
2018-11-29T06:29:33.443Z,98.99
2018-11-29T06:43:55.514Z,99.09
2018-11-29T06:44:58.378Z,98.44
2018-11-29T06:46:01.432Z,98.88
2018-11-29T06:47:04.308Z,98.53
2018-11-29T06:48:07.167Z,98.57
2018-11-29T06:49:10.526Z,98.58
2018-11-29T06:50:13.445Z,98.68
2018-11-29T06:51:16.401Z,98.92
2018-11-29T06:52:19.849Z,98.82
2018-11-29T06:53:27.611Z,98.71
2018-11-29T06:54:30.803Z,99.08
2018-11-29T06:55:37.713Z,98.87
2018-11-29T06:56:40.691Z,98.93
2018-11-29T06:57:43.578Z,98.52
2018-11-29T06:58:46.656Z,98.87
2018-11-29T06:59:49.722Z,98.80
2018-11-29T07:00:52.611Z,98.64
2018-11-29T07:01:56.008Z,98.63
2018-11-29T07:02:59.387Z,99.08
2018-11-29T07:04:02.286Z,98.68
2018-11-29T07:05:05.148Z,98.85
2018-11-29T07:06:08.076Z,98.40
2018-11-29T07:07:11.474Z,99.08
2018-11-29T07:08:14.720Z,99.17
2018-11-29T07:09:17.997Z,98.66
2018-11-29T07:10:25.687Z,98.56
2018-11-29T07:11:28.582Z,98.89
2018-11-29T07:12:32.684Z,99.08
2018-11-29T07:13:35.797Z,98.42
2018-11-29T07:14:39.918Z,98.47
2018-11-29T07:15:42.769Z,98.96
2018-11-29T07:16:47.668Z,98.80
2018-11-29T07:17:50.554Z,98.74
2018-11-29T07:18:53.420Z,98.69
2018-11-29T07:19:56.309Z,98.41
2018-11-29T07:20:59.611Z,98.86
2018-11-29T07:22:02.538Z,98.49
2018-11-29T07:23:05.424Z,98.83
2018-11-29T07:24:08.359Z,98.77
2018-11-29T07:25:12.187Z,98.84
2018-11-29T07:26:16.148Z,99.03
2018-11-29T07:27:21.520Z,98.87
2018-11-29T07:28:25.869Z,98.71
2018-11-29T07:29:30.837Z,98.57
2018-11-29T07:30:33.687Z,98.71
2018-11-29T07:31:36.537Z,98.51
2018-11-29T07:32:39.444Z,98.50
2018-11-29T07:33:44.949Z,98.72
2018-11-29T07:34:47.806Z,98.87
2018-11-29T07:35:50.659Z,98.68
2018-11-29T07:36:53.597Z,98.86
2018-11-29T07:37:56.469Z,98.60
2018-11-29T07:38:59.339Z,99.06
2018-11-29T07:40:02.619Z,98.63
2018-11-29T07:41:05.506Z,98.96
2018-11-29T07:42:09.147Z,99.08
2018-11-29T07:43:12.028Z,98.78
2018-11-29T07:44:14.940Z,98.84
2018-11-29T07:45:17.847Z,99.00
2018-11-29T07:46:21.066Z,98.59
2018-11-29T07:47:23.927Z,98.82
2018-11-29T07:48:26.812Z,98.53
2018-11-29T07:49:29.700Z,98.40
2018-11-29T07:50:32.582Z,98.50
2018-11-29T07:51:35.451Z,98.67
2018-11-29T07:52:39.710Z,99.22
2018-11-29T07:53:42.864Z,98.86
2018-11-29T07:54:47.059Z,98.60
2018-11-29T07:55:51.967Z,98.64
2018-11-29T07:56:57.138Z,98.59
2018-11-29T07:58:00.108Z,98.64
2018-11-29T07:59:03.324Z,98.62
2018-11-29T08:00:06.229Z,98.35
2018-11-29T08:01:09.118Z,98.40
2018-11-29T08:02:12.016Z,98.50
2018-11-29T08:03:14.893Z,98.59
2018-11-29T08:04:17.841Z,98.28
2018-11-29T08:05:21.199Z,98.45
2018-11-29T08:06:24.134Z,98.27
2018-11-29T08:07:27.045Z,98.32
2018-11-29T08:08:29.939Z,98.29
2018-11-29T08:09:32.927Z,98.03
2018-11-29T08:10:36.651Z,97.99
2018-11-29T08:11:39.837Z,98.29
2018-11-29T08:12:43.326Z,98.26
2018-11-29T08:13:46.956Z,97.81
2018-11-29T08:14:49.983Z,98.20
2018-11-29T08:15:52.901Z,98.06
2018-11-29T08:16:55.786Z,97.78
2018-11-29T08:17:58.645Z,97.94
2018-11-29T08:19:02.541Z,97.79
2018-11-29T08:20:05.475Z,97.61
2018-11-29T08:21:09.715Z,97.60
2018-11-29T08:22:15.708Z,97.41
2018-11-29T08:23:19.663Z,97.54
2018-11-29T08:24:22.633Z,97.85
2018-11-29T08:25:25.484Z,97.98
2018-11-29T08:26:28.390Z,97.74
2018-11-29T08:27:31.328Z,97.59
2018-11-29T08:28:34.252Z,97.89
2018-11-29T08:29:37.639Z,97.46
2018-11-29T08:30:41.575Z,97.69
2018-11-29T08:31:44.468Z,97.45
2018-11-29T08:32:47.320Z,97.60
2018-11-29T08:33:51.864Z,97.69
2018-11-29T08:34:55.092Z,97.52
2018-11-29T08:35:58.476Z,97.14
2018-11-29T08:37:01.332Z,97.39
2018-11-29T08:38:06.514Z,97.49
2018-11-29T08:39:09.369Z,97.29
2018-11-29T08:40:13.277Z,96.99
2018-11-29T08:41:16.811Z,96.92
2018-11-29T08:42:20.726Z,97.33
2018-11-29T08:43:23.872Z,97.10
2018-11-29T08:44:28.418Z,96.88
2018-11-29T08:45:32.156Z,97.17
2018-11-29T08:46:38.408Z,96.79
2018-11-29T08:47:41.315Z,97.07
2018-11-29T08:48:45.607Z,97.11
2018-11-29T08:49:48.475Z,96.97
2018-11-29T08:50:52.198Z,96.47
2018-11-29T08:51:55.805Z,96.80
2018-11-29T08:52:59.073Z,96.98
2018-11-29T08:54:02.173Z,96.12
2018-11-29T08:55:07.512Z,96.19
2018-11-29T08:56:10.400Z,96.54
2018-11-29T08:57:14.114Z,96.34
2018-11-29T08:58:17.018Z,96.24
2018-11-29T08:59:20.271Z,95.53
2018-11-29T09:00:23.793Z,96.19
2018-11-29T09:01:28.515Z,95.89
2018-11-29T09:02:31.388Z,95.98
2018-11-29T09:03:34.304Z,95.60
2018-11-29T09:04:37.167Z,96.05
2018-11-29T09:05:40.106Z,95.61
2018-11-29T09:06:44.764Z,95.75
2018-11-29T09:07:48.693Z,95.59
2018-11-29T09:08:51.820Z,95.56
2018-11-29T09:09:54.763Z,95.41
2018-11-29T09:10:57.634Z,95.25
2018-11-29T09:12:00.568Z,95.54
2018-11-29T09:13:03.580Z,95.47
2018-11-29T09:14:06.566Z,95.03
2018-11-29T09:15:09.449Z,95.14
2018-11-29T09:16:12.409Z,95.14
2018-11-29T09:17:15.412Z,94.58
2018-11-29T09:18:18.342Z,94.56
2018-11-29T09:19:21.555Z,94.75
2018-11-29T09:20:24.417Z,94.71
2018-11-29T09:21:27.343Z,94.15
2018-11-29T09:22:30.227Z,94.18
2018-11-29T09:23:33.673Z,94.35
2018-11-29T09:24:36.608Z,94.58
2018-11-29T09:25:40.007Z,94.43
2018-11-29T09:26:42.892Z,94.26
2018-11-29T09:27:45.748Z,94.20
2018-11-29T09:28:48.627Z,93.91
2018-11-29T09:29:56.393Z,94.21
2018-11-29T09:31:00.467Z,93.73
2018-11-29T09:32:03.703Z,94.06
2018-11-29T09:33:07.523Z,93.81
2018-11-29T09:34:10.449Z,93.56
2018-11-29T09:35:13.347Z,93.51
2018-11-29T09:36:16.295Z,93.85
2018-11-29T09:37:20.431Z,93.44
2018-11-29T09:38:24.539Z,93.59
2018-11-29T09:39:28.160Z,93.59
2018-11-29T09:40:31.263Z,94.22
2018-11-29T09:41:36.005Z,93.56
2018-11-29T09:42:40.449Z,93.81
2018-11-29T09:43:44.778Z,93.93
2018-11-29T09:44:48.017Z,93.70
2018-11-29T09:45:50.986Z,93.18
2018-11-29T09:46:54.663Z,93.27
2018-11-29T09:47:57.837Z,93.35
2018-11-29T09:49:01.246Z,93.11
2018-11-29T09:50:04.153Z,93.13
2018-11-29T09:51:08.454Z,93.36
2018-11-29T09:52:11.328Z,93.44
2018-11-29T09:53:14.200Z,93.12
2018-11-29T09:54:17.079Z,93.18
2018-11-29T09:55:20.949Z,93.25
2018-11-29T09:56:23.860Z,93.02
2018-11-29T09:57:27.527Z,93.35
2018-11-29T09:58:30.391Z,93.18
2018-11-29T09:59:34.446Z,93.30
2018-11-29T10:00:39.579Z,93.14
2018-11-29T10:01:42.456Z,92.96
2018-11-29T10:02:45.418Z,93.00
2018-11-29T10:03:48.931Z,93.01
2018-11-29T10:04:51.839Z,93.17
2018-11-29T10:05:55.283Z,93.17
2018-11-29T10:06:58.781Z,92.82
2018-11-29T10:08:01.649Z,92.96
2018-11-29T10:09:05.920Z,92.93
2018-11-29T10:10:08.832Z,92.94
2018-11-29T10:11:11.708Z,92.84
2018-11-29T10:12:14.591Z,92.96
2018-11-29T10:13:19.151Z,92.98
2018-11-29T10:14:24.110Z,92.98
2018-11-29T10:15:27.013Z,92.94
2018-11-29T10:16:29.873Z,93.17
2018-11-29T10:17:32.823Z,92.71
2018-11-29T10:18:35.752Z,93.05
2018-11-29T10:19:38.790Z,93.04
2018-11-29T10:20:42.131Z,93.27
2018-11-29T10:21:46.388Z,92.96
2018-11-29T10:22:50.487Z,92.73
2018-11-29T10:23:54.429Z,93.00
2018-11-29T10:25:01.506Z,92.98
2018-11-29T10:26:04.729Z,92.81
2018-11-29T10:27:10.626Z,92.62
2018-11-29T10:28:13.535Z,92.85
2018-11-29T10:29:16.732Z,92.87
2018-11-29T10:30:19.682Z,92.71
2018-11-29T10:31:23.716Z,93.04
2018-11-29T10:32:27.739Z,92.79
2018-11-29T10:33:32.484Z,92.90
2018-11-29T10:34:35.445Z,92.49
2018-11-29T10:35:40.019Z,92.66
2018-11-29T10:36:43.115Z,92.61
2018-11-29T10:37:46.291Z,92.44
2018-11-29T10:38:49.664Z,92.71
2018-11-29T10:39:52.742Z,92.84
2018-11-29T10:40:55.659Z,92.74
2018-11-29T10:42:01.488Z,92.45
2018-11-29T10:43:04.442Z,92.26
2018-11-29T10:44:07.325Z,92.55
2018-11-29T10:45:11.580Z,92.38
2018-11-29T10:46:15.823Z,92.34
2018-11-29T10:47:17.900Z,92.78
2018-11-29T10:48:20.773Z,92.44
2018-11-29T10:49:23.845Z,92.54
2018-11-29T10:50:26.728Z,92.74
2018-11-29T10:51:30.047Z,92.62
2018-11-29T10:52:33.005Z,92.50
2018-11-29T10:53:37.129Z,92.25
2018-11-29T10:54:39.672Z,92.46
2018-11-29T10:55:43.238Z,92.39
2018-11-29T10:56:46.397Z,92.26
2018-11-29T10:57:50.949Z,92.36
2018-11-29T10:58:53.896Z,92.13
2018-11-29T10:59:58.459Z,92.09
2018-11-29T11:01:05.127Z,92.18
2018-11-29T11:02:14.049Z,92.32
2018-11-29T11:03:19.420Z,92.15
2018-11-29T11:04:22.717Z,92.01
2018-11-29T11:05:25.634Z,92.20
2018-11-29T11:06:28.539Z,91.68
2018-11-29T11:07:31.450Z,92.13
2018-11-29T11:08:34.359Z,91.74
2018-11-29T11:09:37.257Z,91.85
2018-11-29T11:10:40.505Z,91.70
2018-11-29T11:11:45.018Z,91.83
2018-11-29T11:12:47.890Z,91.61
2018-11-29T11:13:51.327Z,92.00
2018-11-29T11:14:54.183Z,91.75
2018-11-29T11:15:57.258Z,92.13
2018-11-29T11:17:00.391Z,91.50
2018-11-29T11:18:03.591Z,91.43
2018-11-29T11:19:06.528Z,91.50
2018-11-29T11:20:09.824Z,91.54
2018-11-29T11:21:12.817Z,91.63
2018-11-29T11:22:16.404Z,91.15
2018-11-29T11:23:20.749Z,91.32
2018-11-29T11:24:23.919Z,91.28
2018-11-29T11:25:26.970Z,91.35
2018-11-29T11:26:30.389Z,91.49
2018-11-29T11:27:33.659Z,91.17
2018-11-29T11:28:38.644Z,91.10
2018-11-29T11:42:55.930Z,90.42
2018-11-29T11:43:58.894Z,90.65
2018-11-29T11:45:01.806Z,90.06
2018-11-29T11:46:06.314Z,90.05
2018-11-29T11:47:10.067Z,90.36
2018-11-29T11:48:14.405Z,90.55
2018-11-29T11:49:17.345Z,90.01
2018-11-29T11:50:20.432Z,90.29
2018-11-29T11:51:23.701Z,90.48
2018-11-29T11:52:26.638Z,90.45
2018-11-29T11:53:30.502Z,90.18
2018-11-29T11:54:33.849Z,90.37
2018-11-29T11:55:37.558Z,90.48
2018-11-29T11:56:40.429Z,90.47
2018-11-29T11:57:44.261Z,90.20
2018-11-29T11:58:47.237Z,90.21
2018-11-29T11:59:50.191Z,90.24
2018-11-29T12:00:53.204Z,90.18
2018-11-29T12:01:56.353Z,90.22
2018-11-29T12:02:59.685Z,90.09
2018-11-29T12:04:04.685Z,89.93
2018-11-29T12:05:07.592Z,90.17
2018-11-29T12:06:11.783Z,89.90
2018-11-29T12:07:15.330Z,90.33
2018-11-29T12:08:18.703Z,90.12
2018-11-29T12:09:23.260Z,89.98
2018-11-29T12:10:28.440Z,90.26
2018-11-29T12:11:31.412Z,90.28
2018-11-29T12:12:35.071Z,90.08
2018-11-29T12:13:38.000Z,90.19
2018-11-29T12:14:40.898Z,90.16
2018-11-29T12:15:43.944Z,90.21
2018-11-29T12:16:46.877Z,90.03
2018-11-29T12:17:49.792Z,90.24
2018-11-29T12:18:53.149Z,90.25
2018-11-29T12:19:56.030Z,90.57
2018-11-29T12:20:58.889Z,90.42
2018-11-29T12:22:01.799Z,90.28
2018-11-29T12:23:05.301Z,90.42
2018-11-29T12:24:08.165Z,90.36
2018-11-29T12:25:11.050Z,90.05
2018-11-29T12:26:15.097Z,90.46
2018-11-29T12:27:17.967Z,90.71
2018-11-29T12:28:20.875Z,90.35
2018-11-29T12:29:23.773Z,90.39
2018-11-29T12:30:27.207Z,90.76
2018-11-29T12:31:31.667Z,90.59
2018-11-29T12:32:34.724Z,90.26
2018-11-29T12:33:37.721Z,90.74
2018-11-29T12:34:40.692Z,90.61
2018-11-29T12:35:44.340Z,90.32
2018-11-29T12:36:48.411Z,90.38
2018-11-29T12:37:53.319Z,90.67
2018-11-29T12:38:59.980Z,90.33
2018-11-29T12:40:02.913Z,90.75
2018-11-29T12:41:05.961Z,90.88
2018-11-29T12:42:09.273Z,90.82
2018-11-29T12:43:13.333Z,90.65
2018-11-29T12:44:22.021Z,90.56
2018-11-29T12:45:26.351Z,90.58
2018-11-29T12:46:29.372Z,90.64
2018-11-29T12:47:32.241Z,90.39
2018-11-29T12:48:35.730Z,90.39
2018-11-29T12:49:38.602Z,91.08
2018-11-29T12:50:41.500Z,90.70
2018-11-29T12:51:44.430Z,90.52
2018-11-29T12:52:47.578Z,90.07
2018-11-29T12:53:50.488Z,90.13
2018-11-29T12:54:54.260Z,90.00
2018-11-29T12:55:57.475Z,89.74
2018-11-29T12:57:01.654Z,90.03
2018-11-29T12:58:05.610Z,90.19
2018-11-29T12:59:07.549Z,89.79
2018-11-29T13:00:11.523Z,89.67
2018-11-29T13:01:15.577Z,89.52
2018-11-29T13:02:18.568Z,89.59
2018-11-29T13:03:22.478Z,89.49
2018-11-29T13:04:26.327Z,90.07
2018-11-29T13:05:29.227Z,89.62
2018-11-29T13:06:32.109Z,90.03
2018-11-29T13:07:35.439Z,89.78
2018-11-29T13:08:38.322Z,89.86
2018-11-29T13:09:42.027Z,89.99
2018-11-29T13:10:44.999Z,89.51
2018-11-29T13:11:48.780Z,90.04
2018-11-29T13:12:53.136Z,90.15
2018-11-29T13:13:57.474Z,90.41
2018-11-29T13:15:00.811Z,90.10
2018-11-29T13:16:03.809Z,90.33
2018-11-29T13:17:06.682Z,90.17
2018-11-29T13:18:10.362Z,90.48
2018-11-29T13:19:13.323Z,90.48
2018-11-29T13:20:16.605Z,90.72
2018-11-29T13:21:21.124Z,90.65
2018-11-29T13:22:24.155Z,90.64
2018-11-29T13:23:27.385Z,90.84
2018-11-29T13:24:30.257Z,90.99
2018-11-29T13:25:33.300Z,90.83
2018-11-29T13:26:37.626Z,91.00
2018-11-29T13:27:43.605Z,90.38
2018-11-29T13:28:46.490Z,90.78
2018-11-29T13:29:50.518Z,90.91
2018-11-29T13:30:53.596Z,91.02
2018-11-29T13:31:56.380Z,91.17
2018-11-29T13:33:02.359Z,91.28
2018-11-29T13:34:05.329Z,91.17
2018-11-29T13:35:08.243Z,91.46
2018-11-29T13:36:12.988Z,91.29
2018-11-29T13:37:20.490Z,91.58
2018-11-29T13:38:25.607Z,91.61
2018-11-29T13:39:30.350Z,92.02
2018-11-29T13:40:34.487Z,91.94
2018-11-29T13:41:37.462Z,91.93
2018-11-29T13:42:42.275Z,91.37
2018-11-29T13:43:45.294Z,90.99
2018-11-29T13:44:55.048Z,90.91
2018-11-29T13:45:58.512Z,90.80
2018-11-29T13:47:01.421Z,90.51
2018-11-29T13:48:05.424Z,90.51
2018-11-29T13:49:08.308Z,90.39
2018-11-29T13:50:12.617Z,90.29
2018-11-29T13:51:15.908Z,90.73
2018-11-29T13:52:19.659Z,91.25
2018-11-29T13:53:22.656Z,91.13
2018-11-29T13:54:26.307Z,91.11
2018-11-29T13:55:29.548Z,91.03
2018-11-29T13:56:34.498Z,91.34
2018-11-29T13:57:38.097Z,91.42
2018-11-29T13:58:41.367Z,91.54
2018-11-29T13:59:46.509Z,91.66
2018-11-29T14:00:49.369Z,92.03
2018-11-29T14:01:53.079Z,92.05
2018-11-29T14:02:56.293Z,92.05